Flight Track Log - Related Links

Times and Time Zones

All times are in EDT time to prevent confusion due to time zone crossing. See the N35407 flight status page for this flight to view local times or setup timezone preferences in your user account.

Time Position Orientation Groundspeed Altitude Reporting Facility
EDT Latitude Longitude Course Direction KTS MPH feet Rate Location/Type
Sun 09:39:24 AM 40.6414 -74.1897 247° West 186 214 1,700  Level New York Center
Sun 09:40:24 AM 40.6206 -74.2542 247° West 202 232 4,600 1,627 Climbing New York Center
Sun 09:41:22 AM 40.6456 -74.3239 295° West 197 227 4,900 1,311 Climbing New York Center
Sun 09:42:23 AM 40.7044 -74.3764 326° Northwest 227 261 7,200 2,678 Climbing New York Center
Sun 09:43:23 AM 40.7617 -74.4178 331° Northwest 238 274 10,300 2,250 Climbing New York Center
Sun 09:44:23 AM 40.8308 -74.4708 330° Northwest 259 298 11,700 2,281 Climbing New York Center
Sun 09:45:24 AM 40.9019 -74.5211 332° Northwest 303 349 14,900 2,380 Climbing New York Center
Sun 09:46:24 AM 40.9875 -74.5864 330° Northwest 316 364 16,500 1,983 Climbing New York Center
Sun 09:47:22 AM 41.0628 -74.6403 332° Northwest 330 380 18,800 2,200 Climbing New York Center
Sun 09:48:24 AM 41.1478 -74.7139 327° Northwest 338 389 20,900 2,066 Climbing New York Center
Sun 09:49:24 AM 41.1903 -74.8158 299° West 332 382 23,000 1,934 Climbing New York Center
Sun 09:50:25 AM 41.2383 -74.9261 300° West 337 388 24,800 1,714 Climbing New York Center
Sun 09:51:23 AM 41.2883 -75.0425 300° West 349 402 26,400 1,525 Climbing New York Center
Sun 09:52:23 AM 41.3383 -75.1617 299° West 368 423 27,800 1,388 Climbing New York Center
Sun 09:53:24 AM 41.3897 -75.2867 299° West 374 430 29,200 1,250 Climbing New York Center
Sun 09:54:23 AM 41.4453 -75.4122 301° West 385 443 30,300 1,200 Climbing New York Center
Sun 09:55:24 AM 41.4922 -75.5428 296° West 385 443 31,600 1,462 Climbing New York Center
Sun 09:56:22 AM 41.5303 -75.6786 291° West 385 443 33,200 1,513 Climbing New York Center
Sun 09:57:23 AM 41.5706 -75.8147 292° West 390 449 34,600 1,279 Climbing New York Center
Sun 09:58:24 AM 41.6067 -75.9422 291° West 390 449 35,800 706 Climbing New York Center
Sun 09:59:22 AM 41.6447 -76.0728 291° West 385 443 36,000 59 Climbing New York Center
Sun 10:01:47 AM 41.7333 -76.3922 290° West 385 443 36,000  Level Cleveland Center
Sun 10:02:47 AM 41.7694 -76.5264 290° West 385 443 36,000  Level Cleveland Center
Sun 10:03:47 AM 41.8075 -76.6606 291° West 385 443 36,000  Level Cleveland Center
Sun 10:04:47 AM 41.8433 -76.7922 290° West 385 443 36,000  Level Cleveland Center
Sun 10:05:47 AM 41.8808 -76.9239 291° West 385 443 36,000  Level Cleveland Center
Sun 10:06:47 AM 41.9161 -77.0531 290° West 385 443 36,000  Level Cleveland Center
Sun 10:07:47 AM 41.9514 -77.1850 290° West 385 443 36,000  Level Cleveland Center
Sun 10:08:47 AM 41.9844 -77.3147 289° West 380 437 36,000  Level Cleveland Center
Sun 10:09:47 AM 42.0214 -77.4469 291° West 380 437 36,000  Level Cleveland Center
Sun 10:10:47 AM 42.0583 -77.5794 291° West 380 437 36,000  Level Cleveland Center
Sun 10:11:47 AM 42.0931 -77.7122 289° West 380 437 36,000  Level Cleveland Center
Sun 10:12:47 AM 42.1300 -77.8589 289° West 380 437 36,000  Level Cleveland Center
Sun 10:13:47 AM 42.1642 -77.9919 289° West 380 437 36,000  Level Cleveland Center
Sun 10:14:47 AM 42.2006 -78.1250 290° West 380 437 36,000  Level Cleveland Center
Sun 10:15:47 AM 42.2347 -78.2583 289° West 380 437 36,000  Level Cleveland Center
Sun 10:16:47 AM 42.2686 -78.3917 289° West 380 437 36,000  Level Cleveland Center
Sun 10:17:47 AM 42.3022 -78.5225 289° West 380 437 36,000  Level Cleveland Center
Sun 10:18:47 AM 42.3358 -78.6564 289° West 375 432 36,000  Level Cleveland Center
Sun 10:19:47 AM 42.3714 -78.7900 290° West 375 432 36,000  Level Cleveland Center
Sun 10:20:47 AM 42.4025 -78.9242 287° West 375 432 36,000  Level Cleveland Center
Sun 10:21:47 AM 42.4378 -79.0583 290° West 375 432 36,000  Level Cleveland Center
Sun 10:22:47 AM 42.4728 -79.1925 290° West 381 438 36,000  Level Cleveland Center
Sun 10:23:47 AM 42.4972 -79.3328 283° West 381 438 36,000  Level Cleveland Center
Sun 10:24:47 AM 42.5028 -79.4764 273° West 381 438 36,000  Level Cleveland Center
Sun 10:25:47 AM 42.5083 -79.6144 273° West 375 432 36,000  Level Cleveland Center
Sun 10:26:47 AM 42.5156 -79.7550 274° West 375 432 36,000  Level Cleveland Center
Sun 10:27:47 AM 42.5250 -79.8958 275° West 375 432 36,000  Level Cleveland Center
Sun 10:28:47 AM 42.5256 -80.0197 270° West 375 432 36,000  Level Cleveland Center
Sun 10:29:47 AM 42.5325 -80.1606 274° West 369 425 36,000  Level Cleveland Center
Sun 10:30:47 AM 42.5392 -80.3014 274° West 376 433 36,000  Level Cleveland Center
Sun 10:31:47 AM 42.5436 -80.4450 272° West 382 440 36,000  Level Cleveland Center
Sun 10:32:47 AM 42.5497 -80.5861 273° West 388 447 36,000  Level Cleveland Center
Sun 10:33:47 AM 42.5561 -80.7269 274° West 378 435 36,000  Level Cleveland Center
Sun 10:34:47 AM 42.5600 -80.8650 272° West 378 435 36,000  Level Cleveland Center
Sun 10:35:47 AM 42.5658 -81.0033 273° West 373 429 36,000  Level Cleveland Center
Sun 10:36:47 AM 42.5694 -81.1414 272° West 368 423 36,000  Level Cleveland Center
Sun 10:37:47 AM 42.5747 -81.2881 273° West 362 417 36,000  Level Cleveland Center
Sun 10:38:47 AM 42.5800 -81.4261 273° West 362 417 36,000  Level Cleveland Center
Sun 10:39:47 AM 42.6019 -81.5564 283° West 369 425 36,000  Level Cleveland Center
Sun 10:40:47 AM 42.6258 -81.6922 283° West 369 425 36,000  Level Cleveland Center
Sun 10:41:47 AM 42.6453 -81.8081 283° West 363 418 36,000  Level Cleveland Center
Sun 10:42:47 AM 42.6689 -81.9414 284° West 363 418 36,000  Level Cleveland Center
Sun 10:43:47 AM 42.6903 -82.0747 282° West 363 418 36,000  Level Cleveland Center
Sun 10:44:47 AM 42.7156 -82.2108 284° West 363 418 36,000  Level Cleveland Center
Sun 10:45:47 AM 42.7383 -82.3472 283° West 363 418 36,000  Level Cleveland Center
Sun 10:46:47 AM 42.7633 -82.4836 284° West 368 423 36,000  Level Cleveland Center
Sun 10:47:47 AM 42.7839 -82.6200 282° West 368 423 36,000  Level Cleveland Center
Sun 10:48:47 AM 42.8086 -82.7622 283° West 375 432 36,000  Level Cleveland Center
Sun 10:49:47 AM 42.8306 -82.9075 282° West 380 437 36,000  Level Cleveland Center
Sun 10:50:47 AM 42.8547 -83.0558 283° West 392 451 36,000  Level Cleveland Center
Sun 10:51:47 AM 42.8786 -83.1983 283° West 392 451 36,000 -350 Level Cleveland Center
Sun 10:52:47 AM 42.9003 -83.3411 282° West 392 451 35,300 -950 Descending Cleveland Center
Sun 10:53:47 AM 42.9278 -83.4981 284° West 392 451 34,100 -1,050 Descending Cleveland Center
Sun 10:54:47 AM 42.9492 -83.6325 282° West 381 438 33,200 -900 Descending Cleveland Center
Sun 10:55:47 AM 42.9622 -83.7722 277° West 376 433 32,300 -900 Descending Cleveland Center
Sun 10:56:47 AM 42.9497 -83.9192 263° West 376 433 31,400 -950 Descending Cleveland Center
Sun 10:57:47 AM 42.9350 -84.0631 262° West 382 440 30,400 -700 Descending Cleveland Center
Sun 10:58:47 AM 42.9200 -84.2125 262° West 393 452 30,000 -200 Descending Cleveland Center
Sun 10:59:47 AM 42.9075 -84.3450 263° West 393 452 30,000  Level Cleveland Center
Sun 11:00:56 AM 42.8908 -84.5156 262° West 393 452 30,000  Level Chicago Center
Sun 11:01:57 AM 42.8764 -84.6625 262° West 392 451 30,000  Level Chicago Center
Sun 11:02:59 AM 42.8603 -84.8094 262° West 392 451 30,000  Level Chicago Center
Sun 11:04:00 AM 42.8456 -84.9575 262° West 394 453 30,000  Level Chicago Center
Sun 11:05:02 AM 42.8297 -85.1064 262° West 396 456 30,000  Level Chicago Center
Sun 11:06:03 AM 42.8100 -85.2864 262° West 401 461 30,000  Level Chicago Center
Sun 11:07:05 AM 42.7931 -85.4372 261° West 401 461 30,000  Level Chicago Center
Sun 11:08:07 AM 42.7714 -85.5878 259° West 405 466 30,000 -585 Level Chicago Center
Sun 11:09:08 AM 42.7442 -85.7306 255° West 395 455 28,800 -1,610 Descending Chicago Center
Sun 11:10:10 AM 42.7208 -85.8628 257° West 369 425 26,700 -2,049 Descending Chicago Center
Sun 11:11:11 AM 42.6978 -85.9900 256° West 351 404 24,600 -2,000 Descending Chicago Center
Sun 11:12:13 AM 42.6753 -86.1133 256° West 341 392 22,600 -2,049 Descending Chicago Center
Sun 11:13:14 AM 42.6525 -86.2392 256° West 340 391 20,400 -1,268 Descending Chicago Center
Sun 11:14:16 AM 42.6269 -86.3692 255° West 352 405 20,000 -194 Descending Chicago Center
Sun 11:15:18 AM 42.6028 -86.5008 256° West 358 412 20,000  Level Chicago Center
Sun 11:16:19 AM 42.5722 -86.6600 255° West 364 419 20,000 -49 Level Chicago Center
Sun 11:17:21 AM 42.5453 -86.7906 254° West 366 421 19,900 -1,113 Descending Chicago Center
Sun 11:18:23 AM 42.5092 -86.9144 248° West 358 412 17,700 -2,195 Descending Chicago Center
Sun 11:19:24 AM 42.4753 -87.0383 250° West 347 399 15,400 -2,244 Descending Chicago Center
Sun 11:20:26 AM 42.4422 -87.1547 249° West 334 384 13,100 -2,226 Descending Chicago Center
Sun 11:21:28 AM 42.4117 -87.2697 250° West 326 375 10,800 -1,512 Descending Chicago Center
Sun 11:22:29 AM 42.3814 -87.3781 249° West 309 356 10,000 -390 Descending Chicago Center
Sun 11:23:31 AM 42.3478 -87.5017 250° West 304 350 10,000  Level Chicago Center
Sun 11:24:32 AM 42.2919 -87.5836 227° Southwest 306 352 10,000 -49 Level Chicago Center
Sun 11:25:34 AM 42.2253 -87.6547 218° Southwest 305 351 9,900 -341 Descending Chicago Center
Sun 11:26:35 AM 42.1664 -87.7150 217° Southwest 270 311 9,300 -1,091 Descending Chicago Center
Sun 11:27:24 AM 42.1167 -87.7667 218° Southwest 259 298 7,900 -1,266 Descending Chicago TRACON
Sun 11:28:24 AM 42.1000 -87.8500 255° West 245 282 7,000 -446 Descending Chicago TRACON
Sun 11:29:25 AM 42.1000 -87.9333 270° West 243 280 7,000  Level Chicago TRACON
Sun 11:30:25 AM 42.1000 -88.0333 270° West 242 278 7,000 -500 Level Chicago TRACON
Sun 11:31:25 AM 42.0833 -88.1167 255° West 235 270 6,000 -923 Descending Chicago TRACON
Sun 11:31:43 AM 42.0911 -88.1417 293° West 240 276 5,800 -900 Descending Chicago Center
Sun 11:32:45 AM 42.0733 -88.2164 252° West 231 266 4,800 -878 Descending Chicago Center
Sun 11:33:46 AM 42.0194 -88.2156 179° South 207 238 4,000 -390 Descending Chicago Center
Sun 11:34:48 AM 41.9853 -88.1881 149° Southeast 187 215 4,000  Level Chicago Center

Login

Don't have an account? Register now (free) for customized features, flight alerts, and more!